Terminal Aerodrome Forecast
Issued by NWS Melbourne, FL

Home | Current Version | Previous Version | Text Only | Print | Product List | Glossary On
Versions: 1 2 3 4 5 6 7 8 9 10 11 12 13 14
000
FTUS42 KMLB 022335
TAFMLB
TAF
KMLB 022335Z 0300/0324 00000KT P6SM VCSH SCT040 BKN120
     FM030200 VRB03KT P6SM FEW050 SCT120 BKN250
     FM030400 22003KT P6SM SCT250
     FM031400 20006KT P6SM SCT025 SCT250
     FM031700 09008KT P6SM VCTS SCT035CB BKN150=

USA.gov is the U.S. government's official web portal to all federal, state and local government web resources and services.